Time;durP1;ratioP1;P1;durP2;ratioP2;P2;SDS_P1;SDS_P2;PMS_P1;PMS_P2;Temp;Humidity;BMP_temperature;BMP_pressure;BME280_temperature;BME280_humidity;BME280_pressure;Samples;Min_cycle;Max_cycle;Signal;HPM_P1;HPM_P2
2022/05/01 00:01:23;;;;;;;6.80;4.18;;;;;;;14.29;56.67;99565.09;4289717;33;35331;-72
2022/05/01 00:03:52;;;;;;;6.75;4.40;;;;;;;13.53;57.81;99571.03;4289022;33;33649;-71
2022/05/01 00:06:19;;;;;;;8.85;4.65;;;;;;;13.86;55.99;99567.78;4289661;33;34629;-71
2022/05/01 00:08:47;;;;;;;8.80;4.05;;;;;;;14.20;56.94;99570.53;4290414;33;35005;-71
2022/05/01 00:11:16;;;;;;;7.07;4.60;;;;;;;14.39;56.12;99561.38;4289628;33;34613;-71
2022/05/01 00:13:45;;;;;;;7.28;3.80;;;;;;;14.11;53.46;99560.28;4290523;33;33663;-71
2022/05/01 00:16:13;;;;;;;8.43;4.25;;;;;;;14.78;55.64;99568.38;4289689;33;34728;-71
2022/05/01 00:18:42;;;;;;;5.43;3.50;;;;;;;14.29;56.03;99554.62;4289622;33;35095;-71
2022/05/01 00:21:09;;;;;;;6.03;4.00;;;;;;;14.10;57.03;99562.03;4289505;33;34440;-71
2022/05/01 00:23:38;;;;;;;7.60;4.43;;;;;;;13.60;58.98;99563.94;4290489;33;33460;-71
2022/05/01 00:26:07;;;;;;;8.35;4.60;;;;;;;13.97;58.68;99566.66;4289685;33;34078;-71
2022/05/01 00:28:36;;;;;;;7.07;3.95;;;;;;;13.73;59.20;99562.81;4290326;33;35144;-71
2022/05/01 00:31:05;;;;;;;9.15;4.12;;;;;;;14.38;56.64;99557.06;4289833;33;35314;-72
2022/05/01 00:36:27;;;;;;;7.20;4.07;;;;;;;14.09;54.74;99562.94;4289227;33;34315;-71
2022/05/01 00:38:56;;;;;;;8.55;4.43;;;;;;;14.49;53.68;99556.81;4290376;33;35212;-71
2022/05/01 00:41:26;;;;;;;6.32;3.92;;;;;;;14.73;49.92;99562.38;4288807;33;34478;-71
2022/05/01 00:44:08;;;;;;;5.97;3.78;;;;;;;14.48;51.41;99557.69;4290274;33;35349;-71
2022/05/01 00:46:42;;;;;;;10.90;4.32;;;;;;;14.01;56.53;99564.84;4289456;33;34075;-72
2022/05/01 00:49:17;;;;;;;5.95;4.22;;;;;;;14.81;50.60;99560.44;4290239;33;35031;-71
2022/05/01 00:51:52;;;;;;;6.75;4.03;;;;;;;14.58;47.62;99556.63;4288691;33;35173;-71
2022/05/01 00:54:22;;;;;;;8.45;4.20;;;;;;;14.90;45.70;99565.44;4290145;33;33698;-71
2022/05/01 00:56:52;;;;;;;6.78;3.70;;;;;;;14.88;46.93;99561.16;4289325;33;33093;-71
2022/05/01 00:59:21;;;;;;;5.75;3.75;;;;;;;14.80;45.51;99566.56;4290282;33;35341;-71
2022/05/01 01:01:50;;;;;;;7.10;4.00;;;;;;;14.91;47.35;99561.06;4289355;33;35116;-71
2022/05/01 01:04:19;;;;;;;5.70;3.75;;;;;;;14.97;46.89;99566.16;4289401;33;33836;-71
2022/05/01 01:06:48;;;;;;;7.60;4.12;;;;;;;15.14;46.14;99560.47;4291147;33;34787;-74
2022/05/01 01:09:17;;;;;;;6.12;3.78;;;;;;;15.52;46.44;99563.84;4289839;33;35057;-74
2022/05/01 01:11:45;;;;;;;7.78;4.00;;;;;;;15.44;45.30;99557.94;4289006;33;34498;-71
2022/05/01 01:14:15;;;;;;;5.47;3.47;;;;;;;15.71;47.84;99565.06;4289702;33;33863;-74
2022/05/01 01:16:44;;;;;;;8.00;4.32;;;;;;;15.48;50.86;99562.22;4288076;33;33970;-74
2022/05/01 01:19:12;;;;;;;7.28;4.15;;;;;;;15.40;49.95;99561.56;4289669;33;34998;-72
2022/05/01 01:21:40;;;;;;;7.30;4.20;;;;;;;15.34;51.58;99568.69;4288868;33;35327;-73
2022/05/01 01:24:10;;;;;;;5.72;3.85;;;;;;;14.84;47.20;99563.00;4289888;33;33253;-73
2022/05/01 01:26:38;;;;;;;6.40;3.70;;;;;;;15.11;49.89;99563.19;4289034;33;33271;-74
2022/05/01 01:31:40;;;;;;;9.07;4.87;;;;;;;14.94;47.94;99564.47;4288457;33;35872;-73
2022/05/01 01:31:55;;;;;;;8.55;4.10;;;;;;;15.13;47.19;99566.63;4288983;33;35372;-71
2022/05/01 01:34:28;;;;;;;5.90;3.78;;;;;;;14.97;48.67;99558.31;4288789;33;34625;-73
2022/05/01 01:36:56;;;;;;;7.03;3.87;;;;;;;15.06;46.23;99565.06;4275192;33;33822;-73
2022/05/01 01:39:25;;;;;;;5.05;3.37;;;;;;;15.53;48.93;99562.97;4288972;33;34940;-74
2022/05/01 01:41:54;;;;;;;6.53;3.83;;;;;;;15.11;48.51;99564.06;4287335;33;34552;-73
2022/05/01 01:44:23;;;;;;;8.43;4.40;;;;;;;15.43;49.76;99561.50;4288677;33;34535;-73
2022/05/01 01:46:51;;;;;;;7.55;4.30;;;;;;;15.16;48.70;99558.69;4285814;33;34807;-71
2022/05/01 01:49:19;;;;;;;5.75;4.00;;;;;;;15.02;48.36;99551.19;4288889;33;35345;-74
2022/05/01 01:51:47;;;;;;;6.53;4.20;;;;;;;14.87;50.93;99562.03;4283818;33;35284;-73
2022/05/01 01:54:15;;;;;;;6.82;4.22;;;;;;;15.12;47.49;99559.66;4283400;33;33855;-72
2022/05/01 01:56:43;;;;;;;7.03;4.25;;;;;;;15.08;46.77;99550.16;4281595;33;34200;-73
2022/05/01 01:59:11;;;;;;;5.95;3.97;;;;;;;15.28;47.68;99563.62;4288227;33;35249;-73
2022/05/01 02:01:43;;;;;;;7.45;3.72;;;;;;;15.19;45.96;99550.72;4288514;33;34626;-74
2022/05/01 02:04:11;;;;;;;5.97;3.90;;;;;;;15.30;45.72;99545.19;4289564;33;33600;-72
2022/05/01 02:06:39;;;;;;;5.75;3.92;;;;;;;15.25;45.79;99552.34;4275573;33;34504;-74
2022/05/01 02:09:07;;;;;;;6.95;4.10;;;;;;;15.34;43.74;99550.31;4289281;33;35193;-74
2022/05/01 02:11:36;;;;;;;6.22;3.78;;;;;;;15.55;44.63;99550.66;4287671;33;34494;-74
2022/05/01 02:14:05;;;;;;;6.25;3.65;;;;;;;15.23;43.02;99543.63;4289296;33;33668;-71
2022/05/01 02:16:33;;;;;;;5.93;3.90;;;;;;;15.65;43.02;99546.88;4288360;33;34032;-71
2022/05/01 02:19:01;;;;;;;7.07;3.62;;;;;;;15.77;43.96;99544.81;4289048;33;35164;-71
2022/05/01 02:21:35;;;;;;;6.47;4.20;;;;;;;15.28;44.45;99540.00;4288364;33;34554;-74
2022/05/01 02:24:06;;;;;;;5.90;4.30;;;;;;;15.39;44.50;99539.72;4286548;33;33805;-71
2022/05/01 02:26:35;;;;;;;6.12;3.90;;;;;;;15.49;42.43;99546.41;4287832;33;34840;-71
2022/05/01 02:29:09;;;;;;;6.97;4.05;;;;;;;15.53;42.19;99547.22;4290857;33;35015;-71
2022/05/01 02:31:42;;;;;;;8.57;4.32;;;;;;;15.58;42.71;99540.03;4290454;33;34504;-74
2022/05/01 02:34:12;;;;;;;7.22;4.05;;;;;;;15.41;42.49;99547.56;4291253;33;33634;-71
2022/05/01 02:36:39;;;;;;;8.20;4.55;;;;;;;15.35;43.56;99549.44;4290362;33;34773;-72
2022/05/01 02:39:07;;;;;;;7.05;4.35;;;;;;;15.46;42.57;99546.53;4291232;33;35895;-71
2022/05/01 02:41:35;;;;;;;7.07;3.83;;;;;;;15.57;41.76;99542.75;4289507;33;34943;-72
2022/05/01 02:44:03;;;;;;;5.43;3.83;;;;;;;15.55;47.87;99548.03;4290948;33;33589;-73
2022/05/01 02:46:32;;;;;;;6.93;3.67;;;;;;;15.29;45.76;99543.50;4290218;33;33920;-71
2022/05/01 02:49:01;;;;;;;6.57;4.15;;;;;;;15.26;42.98;99548.81;4290903;33;35818;-71
2022/05/01 02:51:28;;;;;;;6.15;4.05;;;;;;;15.21;49.63;99548.91;4290096;33;34667;-71
2022/05/01 02:53:56;;;;;;;6.68;4.05;;;;;;;15.46;46.26;99545.63;4285171;33;164558;-71
2022/05/01 02:56:26;;;;;;;10.02;4.50;;;;;;;15.61;45.39;99550.47;4289902;33;34005;-71
2022/05/01 02:58:54;;;;;;;8.07;4.05;;;;;;;15.11;47.43;99553.56;4290148;33;35060;-71
2022/05/01 03:01:21;;;;;;;8.00;4.12;;;;;;;15.21;45.24;99546.28;4290169;33;35291;-71
2022/05/01 03:03:50;;;;;;;6.72;4.32;;;;;;;15.00;46.81;99546.84;4291029;33;33755;-71
2022/05/01 03:06:17;;;;;;;6.28;3.95;;;;;;;15.13;44.06;99536.00;4289930;33;34727;-71
2022/05/01 03:08:45;;;;;;;8.77;4.07;;;;;;;15.30;44.44;99535.56;4290102;33;35955;-71
2022/05/01 03:11:13;;;;;;;5.87;3.95;;;;;;;15.25;46.44;99537.47;4290014;33;34504;-72
2022/05/01 03:13:42;;;;;;;7.62;4.30;;;;;;;15.65;47.46;99546.88;4290881;33;33753;-72
2022/05/01 03:16:11;;;;;;;7.30;4.62;;;;;;;15.47;46.61;99547.38;4289331;33;33853;-74
2022/05/01 03:24:12;;;;;;;7.05;3.85;;;;;;;14.79;44.41;99554.38;4290681;33;34393;-73
2022/05/01 03:26:41;;;;;;;7.00;4.00;;;;;;;15.10;45.26;99558.84;4289663;33;33953;-74
2022/05/01 03:29:10;;;;;;;6.80;4.20;;;;;;;15.05;44.98;99566.81;4290331;33;34923;-74
2022/05/01 03:31:38;;;;;;;6.20;3.83;;;;;;;14.81;45.78;99563.06;4289086;33;34501;-72
2022/05/01 03:34:06;;;;;;;7.90;4.00;;;;;;;14.90;46.00;99562.84;4290506;33;33678;-74
2022/05/01 03:36:34;;;;;;;5.78;3.90;;;;;;;14.59;53.02;99560.97;4276671;33;34060;-74
2022/05/01 03:39:05;;;;;;;8.43;4.10;;;;;;;15.03;52.45;99560.75;4289390;33;36212;-73
2022/05/01 03:41:32;;;;;;;7.57;4.35;;;;;;;15.19;49.15;99561.22;4290166;33;34432;-73
2022/05/01 03:44:00;;;;;;;12.15;4.40;;;;;;;14.94;47.50;99564.47;4290805;33;34375;-73
2022/05/01 03:46:28;;;;;;;6.87;4.12;;;;;;;14.67;48.23;99558.16;4288615;33;33405;-71
2022/05/01 03:48:57;;;;;;;7.82;4.37;;;;;;;14.72;47.53;99555.44;4290383;33;34682;-73
2022/05/01 03:51:25;;;;;;;7.43;4.72;;;;;;;14.87;45.49;99562.91;4289704;33;34588;-73
2022/05/01 03:53:53;;;;;;;7.60;4.70;;;;;;;14.81;45.87;99563.06;4276660;33;34552;-72
2022/05/01 03:56:21;;;;;;;7.78;4.72;;;;;;;14.83;45.55;99566.50;4290050;33;33988;-73
2022/05/01 03:58:49;;;;;;;7.25;5.05;;;;;;;14.95;45.28;99565.34;4289404;33;34581;-74
2022/05/01 04:01:17;;;;;;;6.78;4.62;;;;;;;14.95;45.49;99560.09;4290293;33;34565;-73
2022/05/01 04:03:46;;;;;;;6.70;4.05;;;;;;;15.02;45.86;99571.28;4289511;33;34169;-72
2022/05/01 04:06:14;;;;;;;6.90;4.57;;;;;;;15.27;44.58;99567.13;4290370;33;34740;-73
2022/05/01 04:08:42;;;;;;;8.82;4.80;;;;;;;15.33;44.86;99571.34;4289391;33;35196;-70
2022/05/01 04:11:10;;;;;;;8.55;4.72;;;;;;;15.33;44.74;99572.22;4290346;33;34626;-73
2022/05/01 04:13:38;;;;;;;7.47;4.72;;;;;;;15.06;46.21;99571.19;4289481;33;33667;-73
2022/05/01 04:16:07;;;;;;;6.72;4.40;;;;;;;15.48;44.50;99580.59;4290315;33;33896;-74
2022/05/01 04:18:35;;;;;;;8.95;4.47;;;;;;;15.86;43.71;99573.44;4289123;33;35801;-72
2022/05/01 04:21:02;;;;;;;7.65;4.87;;;;;;;15.69;43.65;99574.75;4290386;33;34364;-72
2022/05/01 04:23:32;;;;;;;8.02;5.47;;;;;;;15.42;44.33;99575.50;4289504;33;33563;-74
2022/05/01 04:26:00;;;;;;;7.72;4.90;;;;;;;15.50;44.26;99582.25;4290188;33;33527;-72
2022/05/01 04:28:28;;;;;;;8.32;4.85;;;;;;;15.72;43.83;99579.03;4289280;33;35189;-71
2022/05/01 04:30:55;;;;;;;5.87;4.22;;;;;;;15.66;44.10;99585.31;4289408;33;34077;-72
2022/05/01 04:33:24;;;;;;;6.72;4.53;;;;;;;16.08;43.01;99578.94;4289521;33;34374;-72
2022/05/01 04:35:52;;;;;;;8.23;4.90;;;;;;;16.13;43.02;99584.94;4289262;33;34695;-74
2022/05/01 04:38:24;;;;;;;7.30;4.72;;;;;;;15.42;44.70;99580.75;4289312;33;34947;-70
2022/05/01 04:40:54;;;;;;;8.02;4.87;;;;;;;15.40;44.93;99582.56;4290356;33;35263;-71
2022/05/01 04:43:27;;;;;;;7.62;5.10;;;;;;;15.93;43.91;99580.22;4289460;33;33848;-72
2022/05/01 04:45:56;;;;;;;7.15;4.90;;;;;;;15.54;44.57;99581.28;4290320;33;34779;-72
2022/05/01 04:48:25;;;;;;;8.43;4.82;;;;;;;15.47;45.08;99589.34;4289457;33;35238;-71
2022/05/01 04:50:53;;;;;;;9.25;5.30;;;;;;;15.79;44.37;99591.13;4289154;33;34401;-71
2022/05/01 04:53:22;;;;;;;14.52;5.43;;;;;;;16.03;44.02;99588.72;4289407;33;33805;-72
2022/05/01 04:55:52;;;;;;;8.07;4.57;;;;;;;16.31;44.85;99588.75;4290002;33;34730;-72
2022/05/01 04:58:20;;;;;;;8.85;5.55;;;;;;;15.59;44.59;99594.28;4289444;33;35198;-71
2022/05/01 05:00:48;;;;;;;6.53;4.85;;;;;;;16.42;42.79;99596.31;4290253;33;34450;-71
2022/05/01 05:03:17;;;;;;;11.63;5.25;;;;;;;15.88;44.59;99597.87;4289572;33;33675;-71
2022/05/01 05:05:45;;;;;;;8.45;5.05;;;;;;;16.14;44.04;99591.88;4289434;33;34789;-73
2022/05/01 05:11:00;;;;;;;8.23;5.55;;;;;;;16.04;44.00;99598.31;4290220;33;34547;-71
2022/05/01 05:13:28;;;;;;;7.18;4.87;;;;;;;16.19;44.01;99595.22;4289230;33;33627;-71
2022/05/01 05:15:59;;;;;;;7.53;4.80;;;;;;;16.34;43.25;99603.56;4290346;33;33571;-70
2022/05/01 05:18:28;;;;;;;7.22;5.15;;;;;;;16.31;44.31;99601.91;4288976;33;35800;-71
2022/05/01 05:20:56;;;;;;;7.32;4.97;;;;;;;16.45;43.78;99607.59;4290052;33;34442;-70
2022/05/01 05:23:24;;;;;;;9.60;4.95;;;;;;;16.74;43.03;99602.34;4289254;33;34562;-71
2022/05/01 05:25:52;;;;;;;11.25;5.47;;;;;;;16.86;43.29;99601.97;4288953;33;34883;-71
2022/05/01 05:28:20;;;;;;;10.82;5.55;;;;;;;17.00;42.04;99609.41;4289152;33;34861;-71
2022/05/01 05:30:51;;;;;;;8.52;5.12;;;;;;;16.84;43.05;99609.06;4289775;33;34521;-71
2022/05/01 05:33:19;;;;;;;8.38;5.05;;;;;;;16.91;42.89;99610.59;4289147;33;33650;-71
2022/05/01 05:35:47;;;;;;;6.62;4.57;;;;;;;17.09;42.06;99611.75;4290204;33;33935;-71
2022/05/01 05:38:16;;;;;;;11.02;5.60;;;;;;;16.93;43.17;99605.28;4289011;33;35177;-71
2022/05/01 05:40:44;;;;;;;9.60;4.80;;;;;;;17.01;42.96;99611.13;4289874;33;35359;-71
2022/05/01 05:43:12;;;;;;;7.70;5.25;;;;;;;17.09;42.83;99619.63;4288837;33;33819;-71
2022/05/01 05:45:40;;;;;;;8.02;5.00;;;;;;;16.97;42.74;99614.78;4288941;33;34056;-71
2022/05/01 05:48:08;;;;;;;7.32;4.90;;;;;;;16.96;43.34;99620.94;4288920;33;35902;-72
2022/05/01 05:50:36;;;;;;;9.07;5.15;;;;;;;17.19;42.32;99617.56;4289657;33;34692;-70
2022/05/01 05:53:04;;;;;;;7.72;5.20;;;;;;;17.16;43.15;99621.16;4288975;33;33616;-70
2022/05/01 05:55:33;;;;;;;11.23;5.60;;;;;;;17.32;42.83;99621.50;4289492;33;33927;-71
2022/05/01 05:58:01;;;;;;;9.07;5.20;;;;;;;17.14;43.35;99627.37;4288852;33;34798;-70
2022/05/01 06:00:29;;;;;;;8.38;5.70;;;;;;;17.33;42.50;99630.25;4288660;33;35142;-70
2022/05/01 06:02:57;;;;;;;7.57;4.80;;;;;;;17.01;44.36;99629.53;4293211;33;33569;-70
2022/05/01 06:05:26;;;;;;;7.80;4.80;;;;;;;17.43;43.00;99634.28;4294243;33;33856;-70
2022/05/01 06:07:54;;;;;;;9.48;5.18;;;;;;;17.24;44.26;99634.94;4293410;33;35180;-70
2022/05/01 06:10:22;;;;;;;8.02;5.80;;;;;;;17.38;43.66;99636.22;4293241;33;34473;-71
2022/05/01 06:12:49;;;;;;;7.10;5.05;;;;;;;17.05;43.53;99636.44;4292935;33;31426;-72
2022/05/01 06:15:20;;;;;;;9.05;5.37;;;;;;;17.59;42.46;99642.50;4293439;33;33957;-72
2022/05/01 06:17:50;;;;;;;7.87;5.43;;;;;;;17.43;43.22;99636.91;4290572;33;35210;-74
2022/05/01 06:20:18;;;;;;;9.52;5.30;;;;;;;17.63;42.79;99646.78;4293978;33;34448;-71
2022/05/01 06:22:50;;;;;;;8.02;5.55;;;;;;;17.57;42.70;99642.56;4293295;33;33301;-70
2022/05/01 06:25:18;;;;;;;10.90;5.80;;;;;;;17.83;42.69;99640.81;4294179;33;34856;-71
2022/05/01 06:27:46;;;;;;;8.98;5.75;;;;;;;17.82;42.10;99641.72;4291485;33;35169;-71
2022/05/01 06:30:14;;;;;;;9.80;6.10;;;;;;;17.53;42.94;99635.69;4294189;33;34543;-72
2022/05/01 06:32:43;;;;;;;14.57;7.37;;;;;;;17.84;42.49;99639.88;4292412;33;33782;-71
2022/05/01 06:35:11;;;;;;;8.35;6.00;;;;;;;17.99;43.09;99639.34;4293887;33;34549;-70
2022/05/01 06:37:39;;;;;;;8.95;5.45;;;;;;;18.26;42.03;99641.03;4293023;33;35087;-70
2022/05/01 06:40:08;;;;;;;7.95;5.07;;;;;;;18.66;40.93;99650.91;4293726;33;34384;-70
2022/05/01 06:42:36;;;;;;;9.32;5.85;;;;;;;18.73;40.85;99647.12;4292345;33;33715;-71
2022/05/01 06:45:04;;;;;;;9.38;5.45;;;;;;;18.92;40.52;99647.28;4293685;33;34084;-71
2022/05/01 06:47:32;;;;;;;10.68;5.82;;;;;;;18.93;40.48;99648.13;4292593;33;35428;-71
2022/05/01 06:50:00;;;;;;;9.02;5.37;;;;;;;19.07;40.58;99655.50;4292787;33;35231;-72
2022/05/01 06:52:28;;;;;;;10.20;5.53;;;;;;;19.42;39.63;99648.75;4292901;33;33737;-73
2022/05/01 06:54:56;;;;;;;8.43;4.87;;;;;;;19.32;40.60;99650.94;4293462;33;34113;-71
2022/05/01 06:57:24;;;;;;;6.87;4.87;;;;;;;19.31;40.65;99645.72;4292842;33;35236;-72
2022/05/01 06:59:51;;;;;;;8.18;5.05;;;;;;;19.54;40.00;99643.87;4293574;33;35285;-72
2022/05/01 07:02:19;;;;;;;7.87;5.12;;;;;;;19.44;39.89;99648.69;4291877;33;33633;-73
2022/05/01 07:04:47;;;;;;;6.93;4.78;;;;;;;19.51;40.74;99640.44;4293687;33;33882;-70
2022/05/01 07:07:15;;;;;;;6.62;4.68;;;;;;;20.01;39.14;99639.19;4292551;33;35086;-71
2022/05/01 07:09:43;;;;;;;6.10;4.10;;;;;;;20.17;38.80;99638.47;4292514;33;34373;-71
2022/05/01 07:12:11;;;;;;;9.15;5.28;;;;;;;20.40;39.27;99640.94;4293191;33;33572;-71
2022/05/01 07:14:39;;;;;;;6.32;4.30;;;;;;;20.31;41.76;99635.22;4290055;33;33973;-72
2022/05/01 07:17:07;;;;;;;6.93;4.22;;;;;;;21.14;38.13;99636.56;4290820;33;34799;-73
2022/05/01 07:19:35;;;;;;;7.70;5.50;;;;;;;20.81;38.07;99635.50;4290140;33;34495;-70
2022/05/01 07:22:03;;;;;;;7.18;4.82;;;;;;;21.60;39.14;99636.94;4277705;33;32241;-70
2022/05/01 07:24:31;;;;;;;8.10;5.65;;;;;;;22.06;35.97;99631.88;4276871;33;34638;-71
2022/05/01 07:26:59;;;;;;;5.60;4.20;;;;;;;21.74;38.67;99631.78;4291026;33;36004;-72
2022/05/01 07:29:27;;;;;;;6.72;4.57;;;;;;;22.70;34.84;99631.94;4290158;33;34492;-70
2022/05/01 07:31:55;;;;;;;5.50;3.70;;;;;;;21.65;39.76;99639.34;4289898;33;33712;-72
2022/05/01 07:34:22;;;;;;;5.68;3.08;;;;;;;22.38;35.75;99628.41;4290118;33;34654;-71
2022/05/01 07:36:50;;;;;;;6.40;3.05;;;;;;;21.30;39.28;99628.72;4290722;33;35203;-71
2022/05/01 07:39:18;;;;;;;5.75;3.10;;;;;;;22.59;35.52;99632.56;4289876;33;34604;-71
2022/05/01 07:41:46;;;;;;;4.87;3.25;;;;;;;22.04;36.53;99628.44;4290654;33;33553;-71
2022/05/01 07:44:13;;;;;;;4.75;3.12;;;;;;;23.26;34.08;99630.53;4289783;33;34678;-71
2022/05/01 07:46:42;;;;;;;5.47;3.47;;;;;;;22.72;34.79;99635.37;4289969;33;35898;-71
2022/05/01 07:49:10;;;;;;;4.85;3.40;;;;;;;23.22;34.06;99623.66;4289645;33;34476;-71
2022/05/01 07:51:38;;;;;;;5.65;2.87;;;;;;;22.74;34.13;99627.31;4289841;33;33565;-71
2022/05/01 07:54:06;;;;;;;9.18;3.55;;;;;;;23.34;33.79;99621.25;4289932;33;34842;-71
2022/05/01 07:56:34;;;;;;;7.57;3.80;;;;;;;23.30;34.87;99619.72;4290446;33;35607;-70
2022/05/01 07:59:02;;;;;;;5.57;3.30;;;;;;;23.37;34.26;99621.06;4289792;33;35470;-71
2022/05/01 08:01:30;;;;;;;6.60;3.70;;;;;;;23.38;36.71;99628.09;4289795;33;33755;-70
2022/05/01 08:06:45;;;;;;;6.37;3.55;;;;;;;23.05;36.56;99618.50;4290567;33;35075;-71
2022/05/01 08:09:13;;;;;;;4.65;2.90;;;;;;;23.11;40.79;99614.63;4289662;33;35435;-72
2022/05/01 08:11:40;;;;;;;4.60;2.95;;;;;;;23.94;36.25;99610.53;4290396;33;34401;-71
2022/05/01 08:14:12;;;;;;;6.20;3.05;;;;;;;23.46;36.76;99604.56;4289707;33;33787;-71
2022/05/01 08:16:40;;;;;;;4.90;3.00;;;;;;;24.76;35.55;99608.91;4290479;33;34950;-70
2022/05/01 08:21:55;;;;;;;;;;;;;;;25.69;28.48;99608.06;4290838;33;34504;-70
2022/05/01 08:24:22;;;;;;;3.45;2.17;;;;;;;25.12;29.12;99599.44;4288425;33;34925;-71
2022/05/01 08:26:50;;;;;;;4.80;2.05;;;;;;;25.00;29.43;99600.25;4290382;33;35037;-71
2022/05/01 08:29:18;;;;;;;3.37;2.20;;;;;;;24.39;31.26;99608.59;4289572;33;34181;-71
2022/05/01 08:31:48;;;;;;;3.83;2.53;;;;;;;24.58;30.71;99610.97;4290309;33;33927;-71
2022/05/01 08:34:17;;;;;;;4.10;2.70;;;;;;;24.13;30.88;99607.59;4288847;33;33945;-71
2022/05/01 08:36:45;;;;;;;3.65;2.20;;;;;;;24.81;30.96;99605.09;4290380;33;35072;-70
2022/05/01 08:39:13;;;;;;;3.30;2.35;;;;;;;24.71;31.98;99600.38;4289519;33;35363;-71
2022/05/01 08:41:41;;;;;;;5.70;2.58;;;;;;;24.82;33.51;99602.34;4289681;33;33868;-71
2022/05/01 08:44:14;;;;;;;6.32;2.95;;;;;;;25.15;30.13;99606.38;4289544;33;34692;-70
2022/05/01 08:46:50;;;;;;;3.15;1.80;;;;;;;25.62;29.74;99599.63;4290384;33;35060;-71
2022/05/01 08:49:19;;;;;;;2.95;2.00;;;;;;;24.48;29.87;99595.63;4289421;33;34502;-71
2022/05/01 08:51:48;;;;;;;5.20;2.05;;;;;;;23.33;32.00;99592.94;4289322;33;34493;-71
2022/05/01 08:54:16;;;;;;;4.97;2.33;;;;;;;24.42;30.62;99589.78;4276539;33;34126;-70
2022/05/01 08:56:45;;;;;;;3.22;2.33;;;;;;;24.54;31.99;99597.94;4290121;33;35161;-71
2022/05/01 08:59:15;;;;;;;2.75;1.95;;;;;;;24.74;30.29;99596.63;4289296;33;35207;-71
2022/05/01 09:01:44;;;;;;;3.20;2.10;;;;;;;24.60;31.16;99585.09;4289584;33;32874;-71
2022/05/01 09:04:14;;;;;;;3.10;1.80;;;;;;;25.36;29.84;99580.13;4289379;33;33900;-70
2022/05/01 09:06:43;;;;;;;3.00;1.85;;;;;;;25.23;28.98;99573.87;4289350;33;34838;-70
2022/05/01 09:09:17;;;;;;;5.15;1.98;;;;;;;25.36;29.68;99585.47;4289444;33;34678;-71
2022/05/01 09:14:32;;;;;;;;;;;;;;;25.33;28.17;99569.66;4289697;33;33950;-71
2022/05/01 09:17:13;;;;;;;3.72;2.10;;;;;;;25.19;29.40;99565.25;4290110;33;35957;-71
2022/05/01 09:19:56;;;;;;;4.32;2.28;;;;;;;25.65;28.52;99574.59;4289344;33;35348;-71
2022/05/01 09:22:24;;;;;;;3.95;1.90;;;;;;;25.92;27.68;99575.31;4289222;33;33723;-73
2022/05/01 09:24:54;;;;;;;3.00;1.98;;;;;;;25.65;28.09;99574.59;4289133;33;34796;-70
2022/05/01 09:27:32;;;;;;;6.50;1.70;;;;;;;25.09;29.21;99575.66;4290105;33;35854;-70
2022/05/01 09:30:07;;;;;;;3.30;2.20;;;;;;;24.94;28.70;99571.38;4289233;33;35225;-71
2022/05/01 09:32:39;;;;;;;3.10;1.80;;;;;;;25.57;28.26;99566.25;4289954;33;33763;-72
2022/05/01 09:35:15;;;;;;;4.05;2.20;;;;;;;26.34;27.23;99566.19;4289138;33;34048;-71
2022/05/01 09:37:44;;;;;;;5.25;2.33;;;;;;;25.21;28.43;99560.66;4289143;33;34969;-71
2022/05/01 09:40:13;;;;;;;3.03;1.87;;;;;;;25.23;30.68;99563.22;4288201;33;35231;-73
2022/05/01 09:42:41;;;;;;;3.08;1.98;;;;;;;26.20;29.06;99562.69;4288036;33;33782;-73
2022/05/01 09:45:14;;;;;;;4.07;2.33;;;;;;;25.44;30.33;99561.78;4289044;33;33861;-71
2022/05/01 09:47:44;;;;;;;5.65;2.62;;;;;;;26.65;27.48;99554.16;4289830;33;35057;-72
2022/05/01 09:50:14;;;;;;;3.83;2.30;;;;;;;26.91;26.44;99565.53;4288832;33;34349;-71
2022/05/01 09:52:58;;;;;;;3.60;2.17;;;;;;;26.86;24.64;99552.53;4289658;33;33747;-71
2022/05/01 09:55:27;;;;;;;4.55;2.78;;;;;;;26.23;26.94;99559.81;4288710;33;34055;-71
2022/05/01 09:58:02;;;;;;;4.30;2.85;;;;;;;27.15;24.24;99556.63;4289996;33;36171;-71
2022/05/01 10:00:42;;;;;;;3.62;2.47;;;;;;;26.15;26.21;99561.31;4287928;33;35345;-71
2022/05/01 10:03:21;;;;;;;4.20;2.78;;;;;;;25.83;25.67;99562.62;4287566;33;33699;-72
2022/05/01 10:05:50;;;;;;;3.37;2.35;;;;;;;25.61;27.82;99549.94;4275299;33;34649;-71
2022/05/01 10:08:19;;;;;;;4.35;2.70;;;;;;;26.74;24.90;99549.94;4274846;33;35798;-72
2022/05/01 10:10:51;;;;;;;4.18;2.55;;;;;;;25.41;27.87;99550.47;4288279;33;34039;-71
2022/05/01 10:13:19;;;;;;;4.18;2.78;;;;;;;25.82;26.10;99555.59;4287574;33;33762;-73
2022/05/01 10:16:07;;;;;;;3.92;2.55;;;;;;;26.46;25.81;99542.09;4264510;33;34042;-71
2022/05/01 10:18:36;;;;;;;3.45;2.20;;;;;;;26.47;25.75;99545.63;4284385;33;35465;-73
2022/05/01 10:21:05;;;;;;;3.75;2.60;;;;;;;26.12;28.18;99533.06;4288436;33;34627;-71
2022/05/01 10:23:34;;;;;;;5.18;2.20;;;;;;;26.48;27.68;99531.31;4288516;33;34614;-71
2022/05/01 10:26:24;;;;;;;4.47;2.83;;;;;;;27.00;24.52;99530.13;4288561;33;33923;-71
2022/05/01 10:29:31;;;;;;;3.58;2.30;;;;;;;27.20;25.54;99517.88;4287483;33;35126;-71
2022/05/01 10:32:21;;;;;;;6.57;2.70;;;;;;;27.12;24.87;99522.97;4289169;33;34528;-71
2022/05/01 10:35:28;;;;;;;3.40;2.37;;;;;;;27.49;25.05;99521.97;4287610;33;33833;-71
2022/05/01 10:38:18;;;;;;;4.65;2.35;;;;;;;26.85;25.53;99528.59;4288173;33;34648;-71
2022/05/01 10:40:58;;;;;;;6.35;2.72;;;;;;;27.31;23.60;99522.44;4287127;33;35011;-71
2022/05/01 10:43:35;;;;;;;8.40;2.97;;;;;;;27.65;22.19;99517.09;4275325;33;34424;-70
2022/05/01 10:46:18;;;;;;;3.85;2.62;;;;;;;26.26;24.62;99521.34;4289045;33;33706;-72
2022/05/01 10:48:48;;;;;;;4.53;3.00;;;;;;;26.30;25.45;99518.34;4289876;33;33725;-71
2022/05/01 10:51:27;;;;;;;3.95;2.70;;;;;;;26.84;24.93;99519.75;4290975;33;35922;-71
2022/05/01 10:54:17;;;;;;;3.87;2.50;;;;;;;27.58;23.30;99511.41;4290197;33;35401;-74
2022/05/01 10:56:50;;;;;;;4.55;2.70;;;;;;;26.77;24.54;99518.50;4290138;33;34626;-71
2022/05/01 10:59:46;;;;;;;5.25;2.72;;;;;;;25.69;24.84;99512.06;4291019;33;34638;-71
2022/05/01 11:02:31;;;;;;;3.87;2.62;;;;;;;26.04;25.13;99514.06;4290073;33;35928;-71
2022/05/01 11:04:59;;;;;;;3.28;2.42;;;;;;;26.42;25.30;99513.06;4291280;33;35242;-71
2022/05/01 11:07:28;;;;;;;4.85;2.90;;;;;;;26.04;30.34;99511.38;4290119;33;33658;-71
2022/05/01 11:10:00;;;;;;;3.55;2.28;;;;;;;23.84;29.15;99508.31;4290930;33;34088;-70
2022/05/01 11:12:30;;;;;;;4.65;3.00;;;;;;;25.48;27.80;99514.41;4290279;33;35897;-71
2022/05/01 11:15:08;;;;;;;5.28;2.70;;;;;;;24.94;28.20;99510.09;4277187;33;34296;-71
2022/05/01 11:17:36;;;;;;;6.05;2.87;;;;;;;25.28;27.41;99507.81;4290189;33;33380;-73
2022/05/01 11:20:13;;;;;;;4.72;3.35;;;;;;;25.35;26.32;99506.44;4290812;33;34062;-71
2022/05/01 11:22:45;;;;;;;4.25;2.95;;;;;;;24.61;29.31;99492.75;4290094;33;35904;-71
2022/05/01 11:25:31;;;;;;;4.57;3.00;;;;;;;25.37;27.80;99496.50;4290934;33;34633;-71
2022/05/01 11:27:59;;;;;;;4.18;2.90;;;;;;;26.15;26.34;99491.94;4289278;33;33572;-71
2022/05/01 11:30:26;;;;;;;4.32;2.78;;;;;;;25.73;24.53;99481.53;4289233;33;33922;-71
2022/05/01 11:33:08;;;;;;;3.42;2.40;;;;;;;25.22;25.98;99486.88;4289076;33;35083;-71
2022/05/01 11:35:56;;;;;;;5.15;3.33;;;;;;;25.34;25.36;99488.72;4289955;33;34610;-72
2022/05/01 11:38:30;;;;;;;4.75;2.85;;;;;;;24.42;25.73;99488.63;4290062;33;33772;-71
2022/05/01 11:41:00;;;;;;;5.82;3.05;;;;;;;24.66;25.92;99479.16;4290734;33;34181;-71
2022/05/01 11:43:29;;;;;;;3.47;2.58;;;;;;;25.70;24.11;99477.28;4289867;33;34269;-71
2022/05/01 11:45:59;;;;;;;3.58;2.65;;;;;;;26.28;24.66;99469.56;4289935;33;34652;-74
2022/05/01 11:48:27;;;;;;;4.28;2.67;;;;;;;26.42;23.06;99470.34;4290029;33;34399;-71
2022/05/01 11:50:58;;;;;;;8.45;3.08;;;;;;;26.63;24.14;99466.09;4290921;33;34060;-71
2022/05/01 11:53:32;;;;;;;4.78;2.75;;;;;;;26.18;23.30;99460.53;4289759;33;35644;-71
2022/05/01 12:04:37;;;;;;;5.45;2.70;;;;;;;25.12;25.75;99463.53;4288552;33;35111;-71
2022/05/01 12:07:13;;;;;;;4.50;3.00;;;;;;;26.33;23.65;99453.22;4290602;33;34666;-71
2022/05/01 12:09:41;;;;;;;3.95;2.80;;;;;;;25.87;26.27;99457.41;4289733;33;34545;-71
2022/05/01 12:12:13;;;;;;;6.57;3.22;;;;;;;25.94;24.27;99451.66;4290450;33;34133;-71
2022/05/01 12:14:42;;;;;;;4.47;3.00;;;;;;;25.46;25.14;99447.88;4289602;33;35954;-71
2022/05/01 12:17:18;;;;;;;4.18;2.78;;;;;;;25.58;25.46;99451.50;4288941;33;34570;-70